Time;durP1;ratioP1;P1;durP2;ratioP2;P2;SDS_P1;SDS_P2;PMS_P1;PMS_P2;Temp;Humidity;BMP_temperature;BMP_pressure;BME280_temperature;BME280_humidity;BME280_pressure;Samples;Min_cycle;Max_cycle;Signal;HPM_P1;HPM_P2
2023/05/14 00:00:52;;;;;;;34.88;24.85;;;;;;;13.90;85.50;101445.09;4995284;28;20489;-70
2023/05/14 00:03:19;;;;;;;36.30;26.08;;;;;;;13.70;84.84;101442.06;5013127;28;20049;-69
2023/05/14 00:05:47;;;;;;;32.40;24.73;;;;;;;13.75;85.08;101437.22;5012155;28;20053;-70
2023/05/14 00:08:14;;;;;;;37.22;25.70;;;;;;;13.42;86.90;101438.63;5014014;28;20513;-70
2023/05/14 00:10:42;;;;;;;37.65;25.50;;;;;;;13.44;86.41;101444.66;5012255;28;20054;-70
2023/05/14 00:13:09;;;;;;;36.22;25.48;;;;;;;13.45;86.38;101441.56;5027536;28;20073;-69
2023/05/14 00:15:36;;;;;;;37.13;25.67;;;;;;;13.58;85.94;101437.09;5012629;28;20053;-69
2023/05/14 00:18:04;;;;;;;39.78;26.13;;;;;;;13.75;85.26;101428.91;5013525;28;20049;-69
2023/05/14 00:20:32;;;;;;;36.38;26.15;;;;;;;13.70;85.38;101429.03;5013159;28;20060;-70
2023/05/14 00:22:59;;;;;;;36.08;26.40;;;;;;;13.61;85.88;101433.69;5012069;28;20429;-69
2023/05/14 00:25:27;;;;;;;34.03;25.85;;;;;;;13.59;85.78;101438.72;5015718;28;20056;-69
2023/05/14 00:27:54;;;;;;;43.15;27.05;;;;;;;13.36;87.51;101437.94;5018015;28;20048;-69
2023/05/14 00:30:22;;;;;;;36.58;26.92;;;;;;;13.31;86.88;101443.59;5028084;28;20061;-69
2023/05/14 00:32:50;;;;;;;38.85;26.80;;;;;;;13.47;87.20;101436.53;4996685;28;20057;-69
2023/05/14 00:35:19;;;;;;;37.17;25.98;;;;;;;13.41;86.53;101432.25;5011695;28;20057;-70
2023/05/14 00:37:46;;;;;;;34.97;26.50;;;;;;;13.34;86.05;101442.13;4999211;28;20057;-69
2023/05/14 00:40:14;;;;;;;36.05;27.55;;;;;;;12.83;89.03;101434.16;5004815;28;20050;-68
2023/05/14 00:42:41;;;;;;;35.70;28.33;;;;;;;12.63;90.04;101420.00;5013241;28;20517;-69
2023/05/14 00:45:09;;;;;;;39.28;28.50;;;;;;;12.69;90.35;101422.34;4994100;28;20050;-70
2023/05/14 00:47:38;;;;;;;33.47;27.95;;;;;;;12.67;90.05;101416.31;5012535;28;20057;-68
2023/05/14 00:50:06;;;;;;;39.45;29.05;;;;;;;12.60;90.06;101424.22;5018157;28;20408;-69
2023/05/14 00:52:33;;;;;;;40.63;28.90;;;;;;;12.57;91.47;101419.28;5020634;28;20076;-69
2023/05/14 00:55:03;;;;;;;41.92;27.80;;;;;;;12.84;89.62;101415.66;4998279;28;20046;-69
2023/05/14 00:57:30;;;;;;;44.60;29.77;;;;;;;12.60;90.10;101417.84;5030568;28;20060;-69
2023/05/14 00:59:58;;;;;;;40.55;28.77;;;;;;;12.54;90.54;101417.13;5028265;28;20050;-69
2023/05/14 01:02:25;;;;;;;50.40;29.42;;;;;;;12.51;89.99;101417.78;5006286;28;20057;-69
2023/05/14 01:04:53;;;;;;;42.85;30.80;;;;;;;12.64;89.68;101414.16;4998644;28;20532;-69
2023/05/14 01:07:26;;;;;;;43.33;30.10;;;;;;;12.35;91.10;101413.69;5033316;28;20058;-69
2023/05/14 01:10:00;;;;;;;44.42;30.38;;;;;;;12.14;91.36;101415.22;5036187;28;20069;-69
2023/05/14 01:12:51;;;;;;;39.45;29.83;;;;;;;11.96;93.13;101408.66;5017039;28;20456;-69
2023/05/14 01:15:21;;;;;;;42.97;30.95;;;;;;;12.21;92.32;101408.19;5018683;28;20042;-69
2023/05/14 01:18:09;;;;;;;42.40;31.55;;;;;;;11.87;94.08;101402.22;5022966;28;20042;-69
2023/05/14 01:20:38;;;;;;;43.88;31.55;;;;;;;12.23;93.12;101402.34;5016030;28;20053;-69
2023/05/14 01:23:07;;;;;;;43.83;31.05;;;;;;;12.17;91.81;101404.38;5013999;28;20057;-70
2023/05/14 01:25:34;;;;;;;40.47;31.73;;;;;;;11.90;93.40;101411.84;5018601;28;20054;-69
2023/05/14 01:28:16;;;;;;;40.28;31.88;;;;;;;11.91;93.39;101408.78;5030780;28;20061;-68
2023/05/14 01:30:57;;;;;;;44.65;32.00;;;;;;;11.96;93.66;101418.91;5015029;28;20409;-69
2023/05/14 01:33:26;;;;;;;41.80;32.17;;;;;;;12.05;93.70;101411.53;5015424;28;20382;-69
2023/05/14 01:35:54;;;;;;;45.17;33.27;;;;;;;11.99;93.29;101421.06;5010144;28;20041;-69
2023/05/14 01:38:22;;;;;;;42.50;33.22;;;;;;;11.76;94.64;101422.03;5013639;28;20050;-69
2023/05/14 01:40:50;;;;;;;44.65;33.75;;;;;;;11.83;93.91;101420.53;5015901;28;20061;-69
2023/05/14 01:43:18;;;;;;;42.75;32.08;;;;;;;11.63;94.69;101420.84;5014274;28;20057;-68
2023/05/14 01:45:45;;;;;;;51.60;34.15;;;;;;;11.49;96.10;101413.69;4988920;28;20068;-68
2023/05/14 01:48:13;;;;;;;49.55;36.35;;;;;;;11.33;97.45;101411.16;4998187;28;20050;-68
2023/05/14 01:50:41;;;;;;;49.00;35.38;;;;;;;11.29;97.99;101421.19;5027587;28;20049;-68
2023/05/14 01:53:08;;;;;;;45.38;35.90;;;;;;;11.33;98.20;101405.66;5033332;28;20052;-68
2023/05/14 01:55:35;;;;;;;56.17;37.22;;;;;;;11.31;98.83;101412.59;5017238;28;20056;-68
2023/05/14 01:58:03;;;;;;;48.25;36.75;;;;;;;11.49;97.22;101414.47;5017542;28;20690;-69
2023/05/14 02:00:30;;;;;;;49.92;36.63;;;;;;;11.28;97.41;101416.78;5015168;28;20057;-70
2023/05/14 02:02:58;;;;;;;52.25;37.58;;;;;;;11.46;97.54;101411.50;5018131;28;20125;-69
2023/05/14 02:05:25;;;;;;;50.92;35.70;;;;;;;11.41;98.06;101417.13;5028762;28;20041;-69
2023/05/14 02:07:53;;;;;;;52.17;36.95;;;;;;;11.47;98.33;101410.41;5015209;28;20069;-69
2023/05/14 02:10:21;;;;;;;53.65;37.10;;;;;;;11.80;96.66;101421.13;5012834;28;20057;-68
2023/05/14 02:12:49;;;;;;;49.60;36.88;;;;;;;11.76;95.91;101416.53;4995787;28;20122;-68
2023/05/14 02:15:16;;;;;;;52.00;38.35;;;;;;;11.55;96.04;101416.03;5029167;28;20050;-69
2023/05/14 02:17:43;;;;;;;49.13;37.53;;;;;;;11.58;96.45;101414.59;5014225;28;20490;-68
2023/05/14 02:20:11;;;;;;;55.63;38.28;;;;;;;11.37;96.97;101411.38;5019495;28;20782;-69
2023/05/14 02:22:41;;;;;;;50.08;37.58;;;;;;;11.66;96.07;101419.47;4997171;28;20057;-69
2023/05/14 02:25:08;;;;;;;48.75;38.40;;;;;;;11.50;96.56;101415.31;4982763;28;20501;-69
2023/05/14 02:27:36;;;;;;;49.38;37.08;;;;;;;11.76;95.94;101411.84;5029372;28;20061;-70
2023/05/14 02:30:05;;;;;;;51.80;38.65;;;;;;;11.75;94.75;101412.94;5027991;28;20057;-70
2023/05/14 02:32:32;;;;;;;52.03;39.50;;;;;;;11.54;95.51;101408.06;4997469;28;20057;-69
2023/05/14 02:35:00;;;;;;;56.13;40.40;;;;;;;11.41;96.67;101406.09;5014839;28;20061;-69
2023/05/14 02:37:27;;;;;;;62.42;39.28;;;;;;;11.32;97.02;101417.81;5014138;28;20057;-69
2023/05/14 02:39:54;;;;;;;50.50;39.33;;;;;;;11.24;98.30;101412.19;4999931;28;20050;-69
2023/05/14 02:42:22;;;;;;;47.35;38.85;;;;;;;11.14;98.66;101406.84;5014427;28;20050;-69
2023/05/14 02:44:51;;;;;;;49.85;38.90;;;;;;;11.33;98.83;101408.41;4991550;28;20065;-69
2023/05/14 02:47:18;;;;;;;49.70;40.58;;;;;;;11.29;97.89;101407.41;4993010;28;20058;-69
2023/05/14 02:49:45;;;;;;;54.33;40.83;;;;;;;11.37;98.10;101397.59;5013673;28;20049;-69
2023/05/14 02:52:13;;;;;;;54.88;40.15;;;;;;;11.48;97.22;101412.84;5016441;28;20069;-69
2023/05/14 02:54:42;;;;;;;54.83;40.08;;;;;;;11.60;95.93;101404.09;5016646;28;20500;-69
2023/05/14 02:57:09;;;;;;;49.20;38.03;;;;;;;11.48;95.95;101412.03;5014463;28;20046;-69
2023/05/14 02:59:38;;;;;;;52.00;38.58;;;;;;;11.40;96.57;101408.03;4996910;28;20665;-69
2023/05/14 03:02:06;;;;;;;51.15;38.38;;;;;;;11.62;95.81;101401.84;5009906;28;20503;-70
2023/05/14 03:04:34;;;;;;;47.85;38.63;;;;;;;11.50;95.98;101407.88;5015318;28;20061;-69
2023/05/14 03:07:02;;;;;;;48.65;39.20;;;;;;;11.46;96.08;101409.56;5013700;28;20046;-68
2023/05/14 03:09:29;;;;;;;52.05;39.10;;;;;;;11.29;96.30;101407.41;5015189;28;20054;-69
2023/05/14 03:11:56;;;;;;;50.95;38.55;;;;;;;11.34;96.91;101409.25;4996313;28;20266;-68
2023/05/14 03:14:23;;;;;;;52.35;38.60;;;;;;;11.40;96.45;101407.22;4996192;28;20517;-69
2023/05/14 03:16:51;;;;;;;55.13;41.00;;;;;;;11.09;98.10;101409.66;5014031;28;20498;-69
2023/05/14 03:19:18;;;;;;;56.33;40.92;;;;;;;11.22;98.06;101403.38;4991687;28;20050;-70
2023/05/14 03:21:45;;;;;;;52.80;38.97;;;;;;;11.37;97.00;101414.16;4991233;28;20058;-69
2023/05/14 03:24:13;;;;;;;58.05;39.83;;;;;;;11.26;97.22;101424.53;4995738;28;20042;-70
2023/05/14 03:26:40;;;;;;;58.28;41.15;;;;;;;10.80;99.92;101415.34;5029395;28;20050;-69
2023/05/14 03:29:08;;;;;;;58.78;42.30;;;;;;;10.64;100.00;101419.41;5025249;28;20125;-69
2023/05/14 03:31:36;;;;;;;61.25;42.92;;;;;;;10.80;100.00;101414.50;5031078;28;20058;-69
2023/05/14 03:34:03;;;;;;;67.32;43.17;;;;;;;10.88;100.00;101430.41;5028678;28;20553;-69
2023/05/14 03:36:30;;;;;;;57.38;40.38;;;;;;;10.74;100.00;101419.28;4995979;28;20053;-69
2023/05/14 03:38:58;;;;;;;56.28;42.30;;;;;;;10.75;100.00;101422.84;5029180;28;20050;-69
2023/05/14 03:41:25;;;;;;;55.67;42.30;;;;;;;10.42;100.00;101421.94;4996066;28;20533;-69
2023/05/14 03:43:52;;;;;;;63.10;44.88;;;;;;;10.46;100.00;101413.91;5005365;28;20049;-71
2023/05/14 03:46:20;;;;;;;60.28;41.80;;;;;;;10.51;100.00;101420.16;5015759;28;20061;-70
2023/05/14 03:48:47;;;;;;;67.30;44.17;;;;;;;10.46;100.00;101422.97;5006513;28;20718;-68
2023/05/14 03:51:14;;;;;;;63.63;45.42;;;;;;;10.44;100.00;101424.38;4995614;28;20053;-69
2023/05/14 03:53:42;;;;;;;64.28;44.60;;;;;;;10.63;100.00;101408.69;4995849;28;20058;-70
2023/05/14 03:56:09;;;;;;;58.75;42.67;;;;;;;10.67;100.00;101413.31;5028998;28;20056;-70
2023/05/14 03:58:37;;;;;;;58.10;41.75;;;;;;;10.97;100.00;101415.63;5008467;28;20034;-69
2023/05/14 04:01:04;;;;;;;60.35;42.20;;;;;;;10.90;100.00;101422.63;5014422;28;20045;-69
2023/05/14 04:03:31;;;;;;;64.15;43.40;;;;;;;10.74;100.00;101419.28;5012670;28;20057;-69
2023/05/14 04:05:59;;;;;;;63.65;44.38;;;;;;;10.79;100.00;101429.41;5018631;28;20054;-69
2023/05/14 04:08:26;;;;;;;61.60;44.45;;;;;;;10.72;100.00;101420.69;5028007;28;20057;-69
2023/05/14 04:10:55;;;;;;;65.65;45.92;;;;;;;10.62;100.00;101418.91;5011866;28;20049;-69
2023/05/14 04:13:23;;;;;;;62.95;45.75;;;;;;;10.57;100.00;101418.97;5030629;28;20501;-69
2023/05/14 04:15:50;;;;;;;65.15;45.67;;;;;;;10.62;100.00;101427.16;5028564;28;20064;-69
2023/05/14 04:18:17;;;;;;;75.47;47.25;;;;;;;10.47;100.00;101418.28;5017118;28;20088;-69
2023/05/14 04:20:45;;;;;;;68.85;48.40;;;;;;;10.48;100.00;101425.44;5012390;28;20046;-69
2023/05/14 04:23:12;;;;;;;64.18;45.75;;;;;;;10.36;100.00;101416.75;5028537;28;20069;-69
2023/05/14 04:25:40;;;;;;;62.40;45.33;;;;;;;10.53;100.00;101419.88;5028406;28;20045;-68
2023/05/14 04:28:07;;;;;;;62.30;45.28;;;;;;;10.74;100.00;101421.22;5029751;28;20052;-69
2023/05/14 04:30:34;;;;;;;59.97;43.45;;;;;;;10.85;100.00;101415.25;5016795;28;20456;-69
2023/05/14 04:33:02;;;;;;;64.60;42.33;;;;;;;11.00;100.00;101428.00;4996013;28;20050;-70
2023/05/14 04:35:29;;;;;;;55.90;41.13;;;;;;;10.99;100.00;101427.19;5012728;28;20053;-69
2023/05/14 04:37:56;;;;;;;61.28;42.78;;;;;;;11.16;100.00;101429.38;5013120;28;20065;-69
2023/05/14 04:40:24;;;;;;;64.13;41.78;;;;;;;11.11;100.00;101426.72;5032323;28;20703;-69
2023/05/14 04:42:51;;;;;;;64.20;44.15;;;;;;;11.00;100.00;101422.50;5019895;28;20490;-70
2023/05/14 04:45:19;;;;;;;61.60;43.72;;;;;;;10.90;100.00;101425.38;5011799;28;20057;-65
2023/05/14 04:47:46;;;;;;;62.78;44.10;;;;;;;10.65;100.00;101429.31;5013235;28;20061;-66
2023/05/14 04:50:14;;;;;;;57.65;41.80;;;;;;;10.99;100.00;101423.59;5031127;28;20065;-66
2023/05/14 04:52:41;;;;;;;65.78;42.88;;;;;;;10.97;100.00;101423.91;5030962;28;20056;-65
2023/05/14 04:55:09;;;;;;;69.00;43.08;;;;;;;10.92;100.00;101435.00;5031986;28;20049;-66
2023/05/14 04:57:36;;;;;;;60.58;43.35;;;;;;;10.87;100.00;101425.97;5002620;28;20054;-66
2023/05/14 05:00:04;;;;;;;58.13;42.13;;;;;;;10.68;100.00;101428.75;5022875;28;20057;-65
2023/05/14 05:02:33;;;;;;;63.10;43.97;;;;;;;10.64;100.00;101419.41;5012906;28;20544;-66
2023/05/14 05:05:02;;;;;;;64.55;43.47;;;;;;;10.62;100.00;101420.81;4995345;28;20050;-65
2023/05/14 05:07:30;;;;;;;67.40;41.70;;;;;;;10.57;100.00;101423.66;5025103;28;20061;-66
2023/05/14 05:09:57;;;;;;;59.78;43.05;;;;;;;10.54;100.00;101418.75;5014265;28;20304;-66
2023/05/14 05:12:28;;;;;;;63.38;42.97;;;;;;;10.76;100.00;101422.56;4999050;28;20722;-65
2023/05/14 05:14:56;;;;;;;62.72;44.47;;;;;;;10.77;100.00;101415.94;5030746;28;20576;-65
2023/05/14 05:17:28;;;;;;;64.13;44.20;;;;;;;10.79;100.00;101408.16;5016158;28;20504;-65
2023/05/14 05:19:55;;;;;;;68.43;45.08;;;;;;;10.76;100.00;101422.56;5030906;28;20056;-66
2023/05/14 05:22:23;;;;;;;66.80;45.97;;;;;;;10.60;100.00;101421.13;4998134;28;20049;-66
2023/05/14 05:24:50;;;;;;;67.90;46.67;;;;;;;10.64;100.00;101418.59;5016259;28;20509;-64
2023/05/14 05:27:19;;;;;;;73.75;46.35;;;;;;;10.66;100.00;101413.59;5016416;28;20065;-67
2023/05/14 05:29:47;;;;;;;68.30;45.42;;;;;;;10.97;100.00;101412.88;5033082;28;20072;-65
2023/05/14 05:32:14;;;;;;;65.38;43.97;;;;;;;11.02;100.00;101422.97;4998667;28;20053;-65
2023/05/14 05:34:41;;;;;;;64.07;43.53;;;;;;;11.28;100.00;101415.94;5015105;28;20064;-65
2023/05/14 05:37:11;;;;;;;59.75;42.38;;;;;;;11.37;100.00;101410.59;5016085;28;20140;-65
2023/05/14 05:39:39;;;;;;;;;;;;;;;11.06;100.00;101419.34;5031168;28;20155;-66
2023/05/14 05:42:06;;;;;;;66.75;44.17;;;;;;;10.75;100.00;101434.69;5016222;28;19921;-67
2023/05/14 05:44:34;;;;;;;68.07;46.05;;;;;;;10.66;100.00;101430.13;5029633;28;20064;-66
2023/05/14 05:47:01;;;;;;;66.28;45.08;;;;;;;10.80;100.00;101440.13;4998441;28;20057;-64
2023/05/14 05:49:29;;;;;;;68.63;44.92;;;;;;;10.54;100.00;101438.84;5030662;28;20049;-65
2023/05/14 05:51:56;;;;;;;68.50;46.22;;;;;;;10.60;100.00;101432.13;5013929;28;20050;-64
2023/05/14 05:54:24;;;;;;;68.70;45.25;;;;;;;10.71;100.00;101447.44;4998509;28;20062;-66
2023/05/14 05:56:51;;;;;;;63.45;43.58;;;;;;;10.61;100.00;101442.06;5016843;28;20068;-66
2023/05/14 05:59:18;;;;;;;63.20;44.53;;;;;;;10.36;100.00;101447.88;5009120;28;20080;-66
2023/05/14 06:01:46;;;;;;;70.78;46.75;;;;;;;10.41;100.00;101447.81;5014686;28;20057;-65
2023/05/14 06:04:14;;;;;;;73.15;47.58;;;;;;;10.50;100.00;101456.25;5015794;28;20053;-65
2023/05/14 06:06:41;;;;;;;70.88;45.92;;;;;;;10.41;100.00;101450.56;5015370;28;20038;-66
2023/05/14 06:09:09;;;;;;;70.72;46.28;;;;;;;10.59;100.00;101446.22;5029378;28;20058;-65
2023/05/14 06:11:36;;;;;;;77.30;48.05;;;;;;;10.42;100.00;101454.16;4980526;28;20057;-65
2023/05/14 06:14:04;;;;;;;73.18;48.97;;;;;;;10.33;100.00;101454.00;5000506;28;20053;-65
2023/05/14 06:16:31;;;;;;;81.20;49.15;;;;;;;10.24;100.00;101461.25;5024500;28;20038;-66
2023/05/14 06:18:58;;;;;;;75.30;47.20;;;;;;;10.52;100.00;101459.53;5015128;28;20057;-65
2023/05/14 06:21:26;;;;;;;76.07;48.00;;;;;;;11.01;100.00;101471.81;4993205;28;20046;-66
2023/05/14 06:23:53;;;;;;;71.07;46.38;;;;;;;10.79;100.00;101468.00;5008544;28;20511;-65
2023/05/14 06:26:20;;;;;;;71.95;46.60;;;;;;;10.69;100.00;101477.22;5006487;28;20058;-68
2023/05/14 06:28:48;;;;;;;75.45;48.20;;;;;;;10.43;100.00;101473.13;5015510;28;20131;-66
2023/05/14 06:31:15;;;;;;;79.35;48.60;;;;;;;10.28;100.00;101476.06;5015399;28;20041;-65
2023/05/14 06:33:43;;;;;;;87.95;50.42;;;;;;;10.22;100.00;101490.19;5013805;28;20054;-66
2023/05/14 06:36:11;;;;;;;91.00;52.25;;;;;;;10.22;100.00;101476.44;5015646;28;20050;-66
2023/05/14 06:38:39;;;;;;;83.95;49.30;;;;;;;10.40;100.00;101481.16;4997231;28;20049;-66
2023/05/14 06:41:06;;;;;;;79.40;49.30;;;;;;;10.52;100.00;101496.16;5015014;28;20041;-65
2023/05/14 06:43:33;;;;;;;83.28;50.72;;;;;;;10.40;100.00;101487.50;5014750;28;20049;-66
2023/05/14 06:46:01;;;;;;;88.80;53.38;;;;;;;10.39;100.00;101485.84;5013253;28;20053;-66
2023/05/14 06:48:29;;;;;;;85.57;50.75;;;;;;;10.30;100.00;101490.38;5006188;28;20053;-66
2023/05/14 06:50:57;;;;;;;91.90;52.72;;;;;;;10.34;100.00;101498.88;5015143;28;20050;-66
2023/05/14 06:53:24;;;;;;;83.28;49.78;;;;;;;10.31;100.00;101494.75;5014146;28;20045;-68
2023/05/14 06:55:51;;;;;;;80.95;49.67;;;;;;;10.14;100.00;101486.97;5014947;28;20061;-66
2023/05/14 06:58:18;;;;;;;82.50;50.55;;;;;;;10.13;100.00;101490.00;5015216;28;20053;-65
2023/05/14 07:00:47;;;;;;;90.03;53.13;;;;;;;10.08;100.00;101481.75;5015178;28;20054;-66
2023/05/14 07:03:14;;;;;;;88.75;51.92;;;;;;;10.42;100.00;101481.69;5014742;28;20038;-66
2023/05/14 07:05:43;;;;;;;81.18;51.70;;;;;;;10.44;100.00;101488.56;4997310;28;20053;-66
2023/05/14 07:08:11;;;;;;;84.53;52.63;;;;;;;10.22;100.00;101484.69;5013358;28;20058;-65
2023/05/14 07:10:38;;;;;;;88.47;52.38;;;;;;;10.14;100.00;101491.66;5030220;28;20281;-66
2023/05/14 07:13:06;;;;;;;88.88;52.53;;;;;;;9.90;100.00;101482.53;5012671;28;20056;-66
2023/05/14 07:15:34;;;;;;;92.32;53.22;;;;;;;9.92;100.00;101483.84;5012515;28;20057;-67
2023/05/14 07:18:01;;;;;;;83.25;51.03;;;;;;;9.95;100.00;101485.22;5012431;28;20058;-67
2023/05/14 07:20:28;;;;;;;94.25;51.00;;;;;;;10.09;100.00;101491.72;5013056;28;20045;-66
2023/05/14 07:22:56;;;;;;;89.65;53.13;;;;;;;10.12;100.00;101494.69;5013418;28;20045;-68
2023/05/14 07:25:23;;;;;;;81.78;50.30;;;;;;;10.55;100.00;101484.56;5013857;28;20053;-63
2023/05/14 07:27:50;;;;;;;85.38;50.78;;;;;;;10.59;100.00;101482.84;5014008;28;20045;-64
2023/05/14 07:30:18;;;;;;;81.60;51.58;;;;;;;10.57;100.00;101485.06;5011871;28;20045;-64
2023/05/14 07:32:46;;;;;;;89.00;49.05;;;;;;;10.47;100.00;101489.88;5014813;28;20049;-64
2023/05/14 07:35:13;;;;;;;79.00;49.17;;;;;;;10.43;100.00;101502.59;5009163;28;20080;-64
2023/05/14 07:37:41;;;;;;;85.22;51.90;;;;;;;10.12;100.00;101502.97;4995701;28;20545;-64
2023/05/14 07:40:09;;;;;;;86.35;51.03;;;;;;;10.34;100.00;101513.44;5025079;28;20054;-65
2023/05/14 07:42:36;;;;;;;87.60;48.75;;;;;;;10.17;100.00;101507.56;5017322;28;20045;-65
2023/05/14 07:45:04;;;;;;;75.20;47.33;;;;;;;10.42;100.00;101504.56;5018180;28;20082;-64
2023/05/14 07:47:32;;;;;;;78.70;48.67;;;;;;;10.47;100.00;101501.75;5006141;28;20056;-68
2023/05/14 07:49:59;;;;;;;77.97;49.15;;;;;;;10.35;100.00;101509.59;5007263;28;20049;-70
2023/05/14 07:52:29;;;;;;;85.88;48.63;;;;;;;10.33;100.00;101498.03;5029200;28;20049;-68
2023/05/14 07:54:57;;;;;;;70.05;44.67;;;;;;;10.13;100.00;101501.84;5019997;28;20056;-69
2023/05/14 07:57:25;;;;;;;79.70;45.33;;;;;;;10.07;100.00;101500.22;5021631;28;20061;-70
2023/05/14 07:59:52;;;;;;;72.25;44.75;;;;;;;10.05;100.00;101496.13;5006748;28;20045;-70
2023/05/14 08:02:19;;;;;;;76.53;45.80;;;;;;;10.13;100.00;101493.56;5000578;28;20045;-70
2023/05/14 08:04:47;;;;;;;71.95;44.38;;;;;;;10.24;100.00;101499.78;5004714;28;20524;-68
2023/05/14 08:07:14;;;;;;;70.10;44.42;;;;;;;10.24;100.00;101497.03;5024010;28;20060;-71
2023/05/14 08:09:42;;;;;;;67.22;41.72;;;;;;;10.11;100.00;101486.75;5020722;28;20045;-71
2023/05/14 08:12:09;;;;;;;67.35;42.10;;;;;;;10.66;100.00;101497.09;5017406;28;20045;-69
2023/05/14 08:14:36;;;;;;;68.13;41.13;;;;;;;10.34;100.00;101496.91;5002082;28;20050;-70
2023/05/14 08:17:03;;;;;;;64.38;40.78;;;;;;;10.26;100.00;101500.31;5014343;28;20046;-70
2023/05/14 08:19:31;;;;;;;68.10;42.22;;;;;;;10.18;100.00;101507.28;5015604;28;20049;-68
2023/05/14 08:21:59;;;;;;;69.20;41.60;;;;;;;10.60;100.00;101501.00;5013081;28;20045;-69
2023/05/14 08:24:26;;;;;;;68.72;41.15;;;;;;;10.33;100.00;101492.53;5019084;28;20046;-70
2023/05/14 08:26:54;;;;;;;63.55;40.30;;;;;;;10.28;100.00;101503.63;5019573;28;20042;-68
2023/05/14 08:29:22;;;;;;;68.45;41.22;;;;;;;10.51;100.00;101505.56;5024708;28;20064;-69
2023/05/14 08:31:50;;;;;;;65.53;42.58;;;;;;;10.51;100.00;101501.97;5025387;28;20044;-69
2023/05/14 08:34:17;;;;;;;64.88;40.88;;;;;;;10.72;100.00;101511.63;5009572;28;20412;-71
2023/05/14 08:36:45;;;;;;;66.57;40.63;;;;;;;10.44;100.00;101502.34;5022567;28;20397;-71
2023/05/14 08:39:12;;;;;;;66.40;38.90;;;;;;;10.52;100.00;101507.19;5020720;28;20057;-70
2023/05/14 08:41:40;;;;;;;63.85;38.25;;;;;;;10.75;100.00;101506.34;4995822;28;20053;-69
2023/05/14 08:44:17;;;;;;;53.15;35.13;;;;;;;10.94;100.00;101511.88;5008251;28;20061;-68
2023/05/14 08:46:45;;;;;;;63.00;38.67;;;;;;;10.86;100.00;101516.09;5013512;28;20060;-69
2023/05/14 08:49:12;;;;;;;57.88;38.00;;;;;;;11.01;100.00;101513.16;5015786;28;20046;-69
2023/05/14 08:51:40;;;;;;;56.08;37.28;;;;;;;11.05;98.46;101505.13;5013655;28;20065;-69
2023/05/14 08:54:09;;;;;;;56.55;37.35;;;;;;;10.77;100.00;101508.81;4997484;28;20058;-70
2023/05/14 08:56:37;;;;;;;55.65;35.10;;;;;;;10.98;99.30;101508.22;5031405;28;20513;-70
2023/05/14 08:59:05;;;;;;;76.47;44.13;;;;;;;11.05;98.44;101513.38;5013800;28;20065;-69
2023/05/14 09:01:32;;;;;;;62.75;39.40;;;;;;;10.98;98.28;101510.19;5014489;28;20553;-70
2023/05/14 09:04:05;;;;;;;58.20;37.60;;;;;;;10.94;98.74;101511.88;4999363;28;20054;-70
2023/05/14 09:06:36;;;;;;;60.75;36.42;;;;;;;11.28;97.72;101513.28;4993113;28;20053;-68
2023/05/14 09:09:03;;;;;;;66.15;40.45;;;;;;;11.48;96.86;101508.59;5019346;28;20049;-71
2023/05/14 09:11:31;;;;;;;60.70;37.88;;;;;;;11.81;94.43;101493.72;5016819;28;20152;-70
2023/05/14 09:13:58;;;;;;;54.42;36.13;;;;;;;12.07;92.79;101498.47;5002644;28;20053;-69
2023/05/14 09:16:25;;;;;;;57.28;37.22;;;;;;;11.99;91.79;101495.59;5032036;28;20065;-71
2023/05/14 09:18:53;;;;;;;58.25;37.58;;;;;;;11.38;94.88;101501.31;5022411;28;20056;-70
2023/05/14 09:21:20;;;;;;;59.78;40.33;;;;;;;11.48;95.69;101503.06;5030563;28;20409;-70
2023/05/14 09:23:52;;;;;;;60.42;39.88;;;;;;;11.54;95.99;101508.19;5009068;28;20042;-70
2023/05/14 09:26:23;;;;;;;62.30;38.70;;;;;;;10.97;97.14;101501.06;5015266;28;20054;-70
2023/05/14 09:28:59;;;;;;;56.55;37.88;;;;;;;10.78;99.21;101511.25;5022997;28;20061;-72
2023/05/14 09:31:31;;;;;;;61.90;38.28;;;;;;;10.65;100.00;101500.94;5029032;28;20065;-70
2023/05/14 09:33:59;;;;;;;58.28;38.30;;;;;;;10.78;100.00;101502.16;5019259;28;20052;-70
2023/05/14 09:36:26;;;;;;;59.28;38.42;;;;;;;10.95;99.73;101500.56;5011939;28;20053;-70
2023/05/14 09:38:56;;;;;;;58.65;37.38;;;;;;;11.00;99.41;101497.72;5011029;28;20057;-69
2023/05/14 09:41:24;;;;;;;58.60;37.53;;;;;;;10.87;98.33;101497.63;5009895;28;20081;-71
2023/05/14 09:43:52;;;;;;;58.08;37.15;;;;;;;10.95;98.27;101497.78;5017903;28;20053;-68
2023/05/14 09:46:20;;;;;;;52.88;36.47;;;;;;;11.18;97.46;101494.16;5024144;28;20049;-69
2023/05/14 09:48:49;;;;;;;51.65;34.42;;;;;;;11.21;97.23;101501.00;5020623;28;20057;-69
2023/05/14 09:51:16;;;;;;;51.50;34.28;;;;;;;11.48;94.86;101500.31;5016671;28;20122;-70
2023/05/14 09:53:43;;;;;;;50.35;33.75;;;;;;;11.81;93.46;101496.47;5008517;28;20061;-70
2023/05/14 09:56:13;;;;;;;47.83;33.88;;;;;;;12.02;91.93;101495.00;5007893;28;20061;-70
2023/05/14 09:58:41;;;;;;;53.05;35.42;;;;;;;11.93;90.84;101496.81;5025605;28;20056;-70
2023/05/14 10:01:08;;;;;;;56.33;36.58;;;;;;;11.41;93.67;101491.59;5021679;28;20068;-69
2023/05/14 10:03:36;;;;;;;56.38;36.08;;;;;;;11.52;94.51;101493.09;5020527;28;20563;-70
2023/05/14 10:06:04;;;;;;;56.65;36.78;;;;;;;11.46;94.48;101502.53;5019522;28;20054;-69
2023/05/14 10:08:40;;;;;;;57.90;36.78;;;;;;;11.51;94.31;101497.78;5009912;28;20049;-70
2023/05/14 10:11:12;;;;;;;50.78;35.88;;;;;;;11.48;94.97;101492.03;5016049;28;20060;-72
2023/05/14 10:13:41;;;;;;;58.85;36.33;;;;;;;11.51;95.68;101502.47;5027524;28;20045;-69
2023/05/14 10:16:23;;;;;;;53.38;35.38;;;;;;;11.31;94.46;101500.88;5010912;28;20049;-69
2023/05/14 10:18:53;;;;;;;54.40;35.08;;;;;;;11.19;96.65;101498.53;5016476;28;20046;-69
2023/05/14 10:21:24;;;;;;;50.85;33.72;;;;;;;11.45;95.59;101501.75;5001238;28;20054;-70
2023/05/14 10:23:51;;;;;;;54.63;34.10;;;;;;;11.75;93.26;101487.47;5021990;28;20409;-69
2023/05/14 10:26:19;;;;;;;49.10;34.22;;;;;;;11.70;92.92;101495.81;5020687;28;20049;-70
2023/05/14 10:28:50;;;;;;;49.38;35.13;;;;;;;12.02;91.97;101492.22;5003857;28;20057;-71
2023/05/14 10:31:17;;;;;;;53.85;35.83;;;;;;;11.53;92.27;101498.28;5024178;28;20061;-71
2023/05/14 10:33:49;;;;;;;52.30;36.33;;;;;;;11.57;93.24;101491.06;5016216;28;20046;-69
2023/05/14 10:36:17;;;;;;;49.03;34.03;;;;;;;11.80;93.02;101487.38;5018650;28;20041;-70
2023/05/14 10:38:45;;;;;;;47.28;33.63;;;;;;;12.30;91.33;101478.16;5004046;28;20060;-70
2023/05/14 10:41:16;;;;;;;50.10;33.97;;;;;;;12.37;87.73;101477.75;5024206;28;20061;-70
2023/05/14 10:43:43;;;;;;;51.78;34.05;;;;;;;12.47;88.43;101474.75;5000548;28;20057;-69
2023/05/14 10:46:12;;;;;;;49.33;35.00;;;;;;;12.66;88.75;101477.44;5005490;28;20060;-70
2023/05/14 10:48:43;;;;;;;48.30;34.55;;;;;;;12.37;87.83;101463.94;5027396;28;20045;-70
2023/05/14 10:51:11;;;;;;;44.72;32.67;;;;;;;12.39;87.89;101472.72;5019867;28;20045;-72
2023/05/14 10:53:41;;;;;;;50.40;33.72;;;;;;;12.53;88.68;101462.50;5026946;28;20038;-69
2023/05/14 10:56:29;;;;;;;47.42;34.15;;;;;;;12.47;85.94;101472.00;4998927;28;20052;-69
2023/05/14 10:58:57;;;;;;;49.97;35.03;;;;;;;12.64;86.35;101461.13;5015185;28;20592;-69
2023/05/14 11:01:26;;;;;;;48.03;33.80;;;;;;;12.68;86.86;101462.16;5000746;28;20049;-69
2023/05/14 11:03:57;;;;;;;50.77;31.73;;;;;;;12.97;87.00;101446.00;5022182;28;20052;-69
2023/05/14 11:06:25;;;;;;;46.50;33.97;;;;;;;13.05;83.66;101452.78;5026365;28;20303;-69
2023/05/14 11:08:53;;;;;;;42.75;32.10;;;;;;;13.11;84.95;101460.66;5025947;28;20053;-70
2023/05/14 11:11:20;;;;;;;44.45;32.75;;;;;;;13.30;83.74;101454.97;5003049;28;20068;-70